Terminal Aerodrome Forecast
Issued by NWS

Home | Current Version | Previous Version | Graphics & Text | Print | Product List | Glossary On
Versions: 1 2 3 4 5 6 7 8 9 10 11 12 13 14 15 16 17 18 19 20 21 22
000
FTUS43 KABR 262058 AAA
TAFPIR
TAF AMD
KPIR 262058Z 2621/2718 15013KT P6SM BKN200
     FM270700 10012KT P6SM VCTS SCT060CB BKN150
     FM271500 09012KT P6SM VCTS BKN080CB OVC150=

USA.gov is the U.S. government's official web portal to all federal, state and local government web resources and services.